Time;durP1;ratioP1;P1;durP2;ratioP2;P2;SDS_P1;SDS_P2;PMS_P1;PMS_P2;Temp;Humidity;BMP_temperature;BMP_pressure;BME280_temperature;BME280_humidity;BME280_pressure;Samples;Min_cycle;Max_cycle;Signal;HPM_P1;HPM_P2
2024/01/18 00:01:31;;;;;;;4.70;2.45;;;21.10;30.60;;;;;;5052770;28;20250;-62
2024/01/18 00:03:58;;;;;;;3.97;2.00;;;21.10;30.60;;;;;;5052682;28;20254;-60
2024/01/18 00:06:25;;;;;;;5.20;2.30;;;21.10;30.60;;;;;;5052384;28;20188;-62
2024/01/18 00:08:52;;;;;;;5.18;2.15;;;21.10;30.60;;;;;;5052182;28;20233;-62
2024/01/18 00:11:19;;;;;;;4.55;2.20;;;21.10;30.60;;;;;;5052914;28;20199;-61
2024/01/18 00:13:46;;;;;;;5.43;2.53;;;21.10;30.60;;;;;;5052266;28;20254;-62
2024/01/18 00:16:13;;;;;;;5.47;2.60;;;21.10;30.60;;;;;;5052445;28;20217;-62
2024/01/18 00:18:42;;;;;;;5.57;2.15;;;21.10;30.60;;;;;;5052557;28;20220;-62
2024/01/18 00:21:08;;;;;;;6.07;2.47;;;21.10;30.60;;;;;;5052133;28;20192;-62
2024/01/18 00:23:35;;;;;;;4.55;2.20;;;21.10;30.60;;;;;;5052398;28;20219;-62
2024/01/18 00:26:02;;;;;;;5.95;2.40;;;21.10;30.60;;;;;;5052727;28;20283;-63
2024/01/18 00:28:29;;;;;;;4.45;2.17;;;21.10;30.60;;;;;;5051648;28;20215;-62
2024/01/18 00:30:56;;;;;;;7.32;2.00;;;21.10;30.60;;;;;;5052375;28;20217;-61
2024/01/18 00:33:23;;;;;;;2.97;1.80;;;21.10;30.50;;;;;;5052359;28;20271;-62
2024/01/18 00:35:51;;;;;;;5.75;2.00;;;21.20;30.60;;;;;;5051891;28;20302;-62
2024/01/18 00:38:18;;;;;;;5.13;1.95;;;21.10;30.40;;;;;;5052207;28;20198;-62
2024/01/18 00:40:45;;;;;;;4.20;2.10;;;21.10;30.50;;;;;;5052218;28;20271;-56
2024/01/18 00:43:12;;;;;;;5.90;2.10;;;21.10;30.40;;;;;;5051854;28;20275;-61
2024/01/18 00:45:39;;;;;;;5.90;2.13;;;21.10;30.40;;;;;;5052304;28;20194;-62
2024/01/18 00:48:06;;;;;;;8.35;2.08;;;21.10;30.40;;;;;;5052219;28;20184;-61
2024/01/18 00:50:33;;;;;;;4.63;2.45;;;21.10;30.40;;;;;;5056009;28;20247;-62
2024/01/18 00:53:02;;;;;;;5.38;2.05;;;21.10;30.40;;;;;;5056242;28;20191;-62
2024/01/18 00:55:29;;;;;;;3.78;1.75;;;21.10;30.40;;;;;;5056080;28;20237;-62
2024/01/18 00:57:56;;;;;;;4.60;1.92;;;21.10;30.40;;;;;;5055562;28;20676;-61
2024/01/18 01:00:23;;;;;;;5.57;1.90;;;21.10;30.40;;;;;;5056235;28;20302;-62
2024/01/18 01:02:51;;;;;;;6.95;1.85;;;21.10;30.30;;;;;;5055767;28;20569;-61
2024/01/18 01:05:18;;;;;;;5.70;2.13;;;21.10;30.30;;;;;;5055637;28;20250;-61
2024/01/18 01:07:45;;;;;;;3.50;1.75;;;21.10;30.30;;;;;;5055873;28;20310;-62
2024/01/18 01:10:13;;;;;;;5.40;1.58;;;21.10;30.20;;;;;;5055925;28;20211;-62
2024/01/18 01:12:40;;;;;;;4.07;1.80;;;21.10;30.20;;;;;;5055339;28;20302;-61
2024/01/18 01:15:08;;;;;;;4.22;1.80;;;21.10;30.20;;;;;;5056000;28;20253;-62
2024/01/18 01:17:35;;;;;;;4.75;2.10;;;21.10;30.10;;;;;;5055907;28;20292;-62
2024/01/18 01:20:03;;;;;;;2.92;1.70;;;21.10;30.10;;;;;;5055626;28;20320;-62
2024/01/18 01:22:30;;;;;;;4.50;1.60;;;21.10;30.10;;;;;;5055739;28;20188;-61
2024/01/18 01:24:57;;;;;;;2.92;1.63;;;21.10;30.10;;;;;;5055634;28;20310;-62
2024/01/18 01:27:25;;;;;;;4.35;1.98;;;21.10;30.80;;;;;;5055035;28;20278;-61
2024/01/18 01:29:52;;;;;;;5.25;1.60;;;21.10;30.10;;;;;;5055791;28;20368;-62
2024/01/18 01:32:19;;;;;;;3.53;1.50;;;21.10;30.10;;;;;;5055256;28;20562;-62
2024/01/18 01:34:46;;;;;;;3.88;1.50;;;21.10;30.10;;;;;;5055227;28;20219;-62
2024/01/18 01:37:13;;;;;;;4.03;1.48;;;21.10;30.00;;;;;;5055532;28;20187;-62
2024/01/18 01:39:40;;;;;;;4.10;1.50;;;21.10;30.00;;;;;;5055387;28;20247;-62
2024/01/18 01:42:07;;;;;;;3.95;1.60;;;21.10;30.00;;;;;;5055185;28;20271;-59
2024/01/18 01:44:36;;;;;;;4.97;1.80;;;21.10;30.00;;;;;;5055462;28;20230;-61
2024/01/18 01:47:03;;;;;;;5.05;1.90;;;21.10;30.00;;;;;;5055234;28;20194;-62
2024/01/18 01:49:30;;;;;;;5.25;1.90;;;21.10;30.00;;;;;;5054999;28;20223;-61
2024/01/18 01:51:57;;;;;;;5.18;1.63;;;21.10;30.00;;;;;;5055170;28;20184;-61
2024/01/18 01:54:29;;;;;;;3.55;1.90;;;21.10;30.00;;;;;;5055521;28;20229;-62
2024/01/18 01:56:59;;;;;;;5.35;1.88;;;21.10;30.00;;;;;;5054689;28;20220;-61
2024/01/18 01:59:27;;;;;;;4.32;1.70;;;21.10;29.90;;;;;;5055060;28;20298;-62
2024/01/18 02:01:55;;;;;;;4.18;1.83;;;21.10;29.90;;;;;;5053573;28;20192;-62
2024/01/18 02:04:22;;;;;;;4.45;1.83;;;21.10;29.90;;;;;;5054667;28;20302;-62
2024/01/18 02:06:52;;;;;;;6.60;1.52;;;21.10;29.90;;;;;;5054673;28;20286;-61
2024/01/18 02:09:19;;;;;;;3.33;1.77;;;21.10;29.90;;;;;;5054796;28;20242;-62
2024/01/18 02:11:46;;;;;;;5.75;1.90;;;21.10;29.90;;;;;;5054722;28;20195;-62
2024/01/18 02:14:14;;;;;;;3.70;1.70;;;21.10;29.90;;;;;;5055003;28;20222;-62
2024/01/18 02:16:41;;;;;;;2.10;1.40;;;21.10;29.80;;;;;;5054640;28;20211;-62
2024/01/18 02:19:09;;;;;;;5.15;1.63;;;21.10;29.80;;;;;;5054428;28;20269;-62
2024/01/18 02:21:36;;;;;;;3.45;1.60;;;21.10;29.80;;;;;;5054798;28;20394;-60
2024/01/18 02:24:11;;;;;;;4.53;1.60;;;21.10;29.80;;;;;;5054640;28;20216;-63
2024/01/18 02:26:39;;;;;;;4.32;1.52;;;21.10;29.80;;;;;;5053950;28;20756;-62
2024/01/18 02:29:06;;;;;;;4.97;2.00;;;21.10;29.70;;;;;;5054611;28;20239;-62
2024/01/18 02:31:33;;;;;;;5.80;1.85;;;21.10;29.70;;;;;;5054504;28;20200;-62
2024/01/18 02:34:00;;;;;;;3.95;1.42;;;21.10;29.70;;;;;;5054060;28;20270;-62
2024/01/18 02:36:27;;;;;;;3.60;1.55;;;21.10;29.70;;;;;;5054651;28;20230;-62
2024/01/18 02:38:55;;;;;;;3.75;1.60;;;21.10;29.60;;;;;;5054025;28;20576;-62
2024/01/18 02:41:23;;;;;;;3.22;1.40;;;21.10;29.60;;;;;;5053821;28;20191;-62
2024/01/18 02:43:51;;;;;;;5.55;2.10;;;21.10;29.50;;;;;;5054310;28;20322;-62
2024/01/18 02:46:18;;;;;;;3.78;1.55;;;21.10;29.50;;;;;;5053934;28;20665;-61
2024/01/18 02:48:45;;;;;;;5.55;2.03;;;21.10;29.50;;;;;;5053773;28;20283;-61
2024/01/18 02:51:12;;;;;;;3.65;1.65;;;21.10;29.50;;;;;;5054060;28;20194;-62
2024/01/18 02:53:39;;;;;;;5.75;1.65;;;21.10;29.50;;;;;;5054042;28;20206;-62
2024/01/18 02:56:05;;;;;;;3.17;1.50;;;21.10;29.40;;;;;;5053317;28;20595;-62
2024/01/18 02:58:32;;;;;;;3.42;1.55;;;21.10;29.40;;;;;;5053879;28;20195;-62
2024/01/18 03:01:00;;;;;;;4.60;1.50;;;21.10;29.40;;;;;;5053901;28;20238;-62
2024/01/18 03:03:27;;;;;;;4.32;1.77;;;21.10;29.40;;;;;;5053167;28;20279;-62
2024/01/18 03:05:54;;;;;;;3.95;1.67;;;21.10;29.40;;;;;;5053877;28;20306;-61
2024/01/18 03:08:21;;;;;;;2.22;1.35;;;21.10;29.40;;;;;;5053707;28;20227;-61
2024/01/18 03:10:48;;;;;;;4.68;1.65;;;21.10;29.30;;;;;;5053209;28;20717;-61
2024/01/18 03:13:14;;;;;;;4.20;1.60;;;21.10;29.30;;;;;;5053600;28;20282;-62
2024/01/18 03:15:41;;;;;;;3.17;1.50;;;21.10;29.30;;;;;;5053691;28;20238;-62
2024/01/18 03:18:09;;;;;;;4.47;1.95;;;21.10;29.30;;;;;;5053196;28;20190;-62
2024/01/18 03:20:36;;;;;;;3.60;1.70;;;21.10;29.30;;;;;;5053633;28;20226;-61
2024/01/18 03:23:04;;;;;;;2.60;1.65;;;21.10;29.30;;;;;;5053478;28;20196;-61
2024/01/18 03:25:31;;;;;;;3.13;1.52;;;21.10;29.30;;;;;;5053219;28;20230;-62
2024/01/18 03:27:57;;;;;;;4.45;1.50;;;21.10;29.20;;;;;;5053400;28;20190;-61
2024/01/18 03:30:24;;;;;;;6.03;1.58;;;21.10;29.20;;;;;;5053737;28;20311;-61
2024/01/18 03:32:51;;;;;;;3.05;1.48;;;21.10;29.20;;;;;;5052949;28;20629;-61
2024/01/18 03:35:19;;;;;;;2.65;1.50;;;21.10;29.20;;;;;;5053279;28;20674;-62
2024/01/18 03:37:46;;;;;;;5.35;1.58;;;21.10;29.10;;;;;;5052914;28;20191;-61
2024/01/18 03:40:13;;;;;;;3.78;1.70;;;21.10;29.10;;;;;;5052759;28;20215;-61
2024/01/18 03:42:41;;;;;;;5.80;1.48;;;21.10;29.10;;;;;;5052995;28;20194;-62
2024/01/18 03:45:08;;;;;;;4.10;1.80;;;21.20;29.10;;;;;;5052895;28;20592;-62
2024/01/18 03:47:35;;;;;;;4.70;1.45;;;21.10;29.10;;;;;;5052620;28;20202;-63
2024/01/18 03:50:05;;;;;;;5.35;1.83;;;21.10;29.00;;;;;;5053173;28;20216;-62
2024/01/18 03:52:33;;;;;;;2.95;1.50;;;21.10;29.00;;;;;;5052954;28;20207;-61
2024/01/18 03:55:00;;;;;;;4.18;1.40;;;21.10;28.90;;;;;;5052654;28;20222;-62
2024/01/18 03:57:27;;;;;;;3.80;1.60;;;21.10;28.90;;;;;;5052784;28;20241;-61
2024/01/18 03:59:55;;;;;;;3.97;1.55;;;21.10;28.90;;;;;;5052849;28;20286;-62
2024/01/18 04:02:22;;;;;;;2.42;1.25;;;21.10;28.90;;;;;;5052246;28;20198;-61
2024/01/18 04:04:49;;;;;;;3.00;1.55;;;21.10;28.90;;;;;;5050974;28;20222;-62
2024/01/18 04:07:18;;;;;;;3.17;1.45;;;21.10;28.80;;;;;;5052340;28;20615;-62
2024/01/18 04:09:46;;;;;;;3.97;1.50;;;21.10;29.30;;;;;;5052326;28;20306;-61
2024/01/18 04:12:14;;;;;;;4.88;1.75;;;21.10;28.80;;;;;;5052897;28;20195;-62
2024/01/18 04:14:43;;;;;;;5.28;1.83;;;21.10;28.80;;;;;;5052620;28;20214;-62
2024/01/18 04:17:12;;;;;;;5.20;1.55;;;21.10;29.30;;;;;;5052140;28;20219;-62
2024/01/18 04:19:39;;;;;;;3.13;1.33;;;21.10;28.80;;;;;;5052550;28;20219;-61
2024/01/18 04:22:06;;;;;;;3.67;1.25;;;21.10;28.70;;;;;;5052505;28;20194;-62
2024/01/18 04:24:33;;;;;;;3.30;1.52;;;21.10;28.70;;;;;;5051528;28;20220;-62
2024/01/18 04:27:02;;;;;;;3.30;1.55;;;21.10;28.70;;;;;;5052521;28;20192;-62
2024/01/18 04:29:29;;;;;;;2.47;1.30;;;21.10;28.60;;;;;;5052287;28;20307;-62
2024/01/18 04:31:56;;;;;;;5.72;1.60;;;21.10;28.60;;;;;;5052093;28;20194;-62
2024/01/18 04:34:23;;;;;;;3.25;1.45;;;21.10;29.20;;;;;;5052062;28;20222;-62
2024/01/18 04:36:50;;;;;;;5.13;1.85;;;21.10;29.10;;;;;;5052346;28;20303;-62
2024/01/18 04:39:17;;;;;;;2.47;1.50;;;21.10;28.60;;;;;;5051954;28;20596;-61
2024/01/18 04:41:44;;;;;;;2.20;1.30;;;21.10;28.60;;;;;;5052434;28;20191;-62
2024/01/18 04:44:13;;;;;;;2.20;1.48;;;21.10;28.60;;;;;;5051935;28;20831;-62
2024/01/18 04:46:40;;;;;;;8.13;1.73;;;21.10;28.50;;;;;;5051860;28;20223;-60
2024/01/18 04:49:07;;;;;;;3.40;1.40;;;21.10;28.50;;;;;;5052135;28;20304;-62
2024/01/18 04:51:33;;;;;;;3.83;1.58;;;21.10;28.50;;;;;;5052097;28;20187;-61
2024/01/18 04:54:00;;;;;;;3.30;1.58;;;21.10;28.50;;;;;;5051731;28;20187;-61
2024/01/18 04:56:28;;;;;;;3.38;1.60;;;21.10;28.50;;;;;;5052082;28;20215;-61
2024/01/18 04:58:56;;;;;;;2.70;1.27;;;21.10;29.00;;;;;;5052092;28;20192;-62
2024/01/18 05:01:24;;;;;;;3.17;1.38;;;21.10;28.40;;;;;;5051446;28;20246;-61
2024/01/18 05:03:51;;;;;;;3.58;1.40;;;21.10;28.40;;;;;;5052033;28;20192;-62
2024/01/18 05:06:18;;;;;;;4.93;1.30;;;21.10;28.40;;;;;;5051700;28;20566;-62
2024/01/18 05:08:46;;;;;;;3.20;1.35;;;21.10;28.40;;;;;;5051220;28;20228;-62
2024/01/18 05:11:13;;;;;;;3.35;1.45;;;21.10;28.40;;;;;;5052200;28;20290;-62
2024/01/18 05:13:40;;;;;;;2.30;1.23;;;21.10;28.40;;;;;;5051959;28;20621;-62
2024/01/18 05:16:07;;;;;;;3.33;1.40;;;21.10;28.30;;;;;;5051581;28;20306;-62
2024/01/18 05:18:36;;;;;;;3.92;1.40;;;21.10;28.30;;;;;;5051676;28;20609;-62
2024/01/18 05:21:03;;;;;;;5.20;1.70;;;21.10;28.20;;;;;;5052133;28;20226;-61
2024/01/18 05:23:30;;;;;;;2.90;1.27;;;21.10;28.20;;;;;;5051225;28;20578;-62
2024/01/18 05:25:57;;;;;;;6.60;1.80;;;21.10;28.20;;;;;;5052057;28;20306;-62
2024/01/18 05:28:24;;;;;;;4.57;1.40;;;21.10;28.20;;;;;;5051869;28;20194;-62
2024/01/18 05:30:51;;;;;;;4.47;1.45;;;21.10;28.20;;;;;;5051377;28;20223;-62
2024/01/18 05:33:19;;;;;;;3.67;1.20;;;21.10;28.00;;;;;;5051434;28;20737;-62
2024/01/18 05:35:47;;;;;;;5.25;1.60;;;21.10;28.10;;;;;;5053975;28;20222;-61
2024/01/18 05:38:14;;;;;;;2.92;1.00;;;21.10;28.00;;;;;;5055129;28;20221;-62
2024/01/18 05:40:41;;;;;;;5.55;1.40;;;21.10;28.00;;;;;;5055385;28;20262;-61
2024/01/18 05:43:08;;;;;;;4.55;1.40;;;21.10;28.00;;;;;;5055433;28;20245;-62
2024/01/18 05:45:35;;;;;;;2.67;1.20;;;21.10;28.00;;;;;;5055056;28;20265;-61
2024/01/18 05:48:02;;;;;;;2.90;1.30;;;21.10;28.00;;;;;;5055298;28;20223;-62
2024/01/18 05:50:29;;;;;;;3.50;1.17;;;21.10;28.00;;;;;;5055363;28;20262;-61
2024/01/18 05:52:57;;;;;;;2.70;1.15;;;21.10;28.00;;;;;;5054896;28;20194;-61
2024/01/18 05:55:24;;;;;;;2.75;1.23;;;21.10;28.00;;;;;;5055257;28;20307;-62
2024/01/18 05:57:51;;;;;;;2.85;1.17;;;21.10;28.00;;;;;;5055055;28;20254;-61
2024/01/18 06:00:18;;;;;;;3.60;1.05;;;21.10;28.00;;;;;;5054831;28;20584;-61
2024/01/18 06:02:45;;;;;;;2.88;1.20;;;21.10;28.00;;;;;;5055103;28;20187;-62
2024/01/18 06:05:12;;;;;;;1.88;1.20;;;21.10;28.00;;;;;;5054980;28;20627;-62
2024/01/18 06:07:39;;;;;;;1.40;1.05;;;21.10;28.00;;;;;;5054307;28;20227;-61
2024/01/18 06:10:08;;;;;;;2.17;1.10;;;21.10;28.00;;;;;;5055024;28;20215;-62
2024/01/18 06:12:35;;;;;;;4.65;1.20;;;21.10;28.00;;;;;;5054891;28;20294;-62
2024/01/18 06:15:02;;;;;;;2.50;1.10;;;21.10;27.90;;;;;;5054439;28;20218;-62
2024/01/18 06:17:29;;;;;;;2.97;1.20;;;21.10;27.80;;;;;;5054707;28;20219;-62
2024/01/18 06:19:56;;;;;;;2.45;1.10;;;21.10;27.70;;;;;;5054769;28;20302;-62
2024/01/18 06:22:23;;;;;;;2.05;1.08;;;21.10;28.20;;;;;;5054038;28;20806;-62
2024/01/18 06:24:50;;;;;;;2.08;0.80;;;21.10;27.60;;;;;;5054318;28;20219;-60
2024/01/18 06:27:19;;;;;;;2.88;0.90;;;21.10;27.60;;;;;;5054593;28;20287;-61
2024/01/18 06:29:47;;;;;;;4.13;1.20;;;21.10;27.50;;;;;;5054255;28;20219;-61
2024/01/18 06:32:14;;;;;;;3.20;1.23;;;21.10;27.50;;;;;;5054478;28;20203;-62
2024/01/18 06:34:41;;;;;;;2.25;0.85;;;21.10;27.40;;;;;;5054525;28;20299;-62
2024/01/18 06:37:08;;;;;;;2.35;0.85;;;21.10;27.90;;;;;;5054005;28;20226;-61
2024/01/18 06:39:35;;;;;;;3.90;1.15;;;21.10;27.40;;;;;;5054280;28;20776;-62
2024/01/18 06:42:03;;;;;;;2.40;1.00;;;21.10;27.30;;;;;;5054415;28;20566;-62
2024/01/18 06:44:31;;;;;;;1.80;0.93;;;21.10;27.30;;;;;;5054165;28;20249;-62
2024/01/18 06:46:59;;;;;;;3.20;1.13;;;21.10;27.20;;;;;;5053372;28;20299;-61
2024/01/18 06:49:26;;;;;;;4.32;1.30;;;21.10;27.10;;;;;;5053889;28;20314;-62
2024/01/18 06:51:53;;;;;;;1.67;0.80;;;21.10;27.10;;;;;;5054170;28;20194;-61
2024/01/18 06:54:21;;;;;;;2.53;0.80;;;21.20;27.10;;;;;;5053567;28;20226;-62
2024/01/18 06:56:48;;;;;;;2.15;1.13;;;21.10;27.00;;;;;;5053690;28;20220;-62
2024/01/18 06:59:16;;;;;;;1.48;0.93;;;21.10;27.00;;;;;;5053910;28;20188;-61
2024/01/18 07:01:44;;;;;;;3.35;1.17;;;21.10;27.00;;;;;;5053699;28;20271;-62
2024/01/18 07:04:12;;;;;;;2.58;1.10;;;21.10;26.90;;;;;;5053864;28;20192;-62
2024/01/18 07:06:39;;;;;;;2.22;0.93;;;21.10;26.90;;;;;;5053522;28;20646;-59
2024/01/18 07:09:06;;;;;;;2.17;1.02;;;21.10;26.90;;;;;;5053566;28;20235;-61
2024/01/18 07:11:33;;;;;;;1.92;1.15;;;21.10;26.80;;;;;;5053420;28;20199;-62
2024/01/18 07:14:00;;;;;;;2.95;0.98;;;21.10;26.80;;;;;;5053671;28;20192;-61
2024/01/18 07:16:27;;;;;;;2.90;1.08;;;21.10;26.70;;;;;;5052823;28;20662;-62
2024/01/18 07:18:56;;;;;;;3.28;1.00;;;21.10;26.70;;;;;;5053612;28;20193;-61
2024/01/18 07:21:23;;;;;;;3.05;0.90;;;21.10;26.70;;;;;;5053677;28;20219;-62
2024/01/18 07:23:50;;;;;;;3.13;1.02;;;21.10;26.70;;;;;;5053119;28;20191;-61
2024/01/18 07:26:17;;;;;;;1.98;1.10;;;21.10;26.60;;;;;;5053608;28;20221;-61
2024/01/18 07:28:43;;;;;;;1.73;0.80;;;21.10;26.60;;;;;;5053367;28;20191;-60
2024/01/18 07:31:10;;;;;;;2.35;1.00;;;21.10;26.60;;;;;;5053133;28;20311;-62
2024/01/18 07:33:37;;;;;;;1.88;0.85;;;21.00;26.40;;;;;;5053332;28;20284;-60
2024/01/18 07:36:07;;;;;;;1.33;0.85;;;21.10;26.50;;;;;;5053808;28;20262;-62
2024/01/18 07:38:34;;;;;;;2.17;0.85;;;21.10;26.40;;;;;;5052757;28;20221;-62
2024/01/18 07:41:01;;;;;;;2.10;0.88;;;21.10;26.40;;;;;;5052816;28;20215;-62
2024/01/18 07:43:27;;;;;;;2.25;1.00;;;21.10;26.30;;;;;;5053105;28;20278;-62
2024/01/18 07:45:54;;;;;;;1.45;0.80;;;21.10;26.40;;;;;;5048559;28;20218;-61
2024/01/18 07:48:21;;;;;;;2.47;0.90;;;21.10;26.30;;;;;;5049281;28;20196;-57
2024/01/18 07:50:48;;;;;;;2.03;1.00;;;21.10;26.30;;;;;;5050959;28;20619;-61
2024/01/18 07:53:18;;;;;;;2.25;0.93;;;21.10;26.30;;;;;;5050262;28;20211;-61
2024/01/18 07:55:45;;;;;;;2.85;1.30;;;21.00;26.30;;;;;;5047983;28;20215;-60
2024/01/18 07:58:13;;;;;;;2.38;1.10;;;21.10;26.30;;;;;;5051147;28;20307;-58
2024/01/18 08:00:40;;;;;;;1.60;1.05;;;21.00;26.40;;;;;;5050664;28;20815;-61
2024/01/18 08:03:07;;;;;;;2.13;1.10;;;21.00;26.40;;;;;;5050902;28;20283;-62
2024/01/18 08:05:34;;;;;;;2.75;0.80;;;21.00;26.30;;;;;;5047244;28;20258;-59
2024/01/18 08:08:01;;;;;;;2.85;1.20;;;21.00;26.40;;;;;;5047415;28;20215;-57
2024/01/18 08:10:29;;;;;;;3.03;1.05;;;21.00;26.50;;;;;;5049320;28;20491;-63
2024/01/18 08:12:56;;;;;;;5.65;1.20;;;21.00;26.60;;;;;;5051610;28;20280;-61
2024/01/18 08:15:23;;;;;;;1.80;0.90;;;21.00;26.80;;;;;;5050491;28;20306;-61
2024/01/18 08:17:50;;;;;;;2.25;1.20;;;21.10;26.90;;;;;;5046340;28;20207;-59
2024/01/18 08:20:17;;;;;;;4.45;1.17;;;21.10;26.90;;;;;;5049150;28;20449;-58
2024/01/18 08:22:44;;;;;;;3.10;1.00;;;21.10;26.90;;;;;;5046288;28;20207;-59
2024/01/18 08:25:11;;;;;;;6.00;0.90;;;21.10;27.50;;;;;;5049826;28;20255;-57
2024/01/18 08:27:40;;;;;;;2.33;1.00;;;21.20;27.10;;;;;;5044364;28;20203;-62
2024/01/18 08:30:08;;;;;;;3.35;1.10;;;21.20;27.20;;;;;;5044777;28;20681;-62
2024/01/18 08:32:40;;;;;;;1.20;0.90;;;21.20;27.20;;;;;;5047802;28;20279;-62
2024/01/18 08:35:08;;;;;;;1.15;0.80;;;21.20;27.00;;;;;;5047776;28;20277;-61
2024/01/18 08:37:37;;;;;;;3.95;1.08;;;21.30;27.10;;;;;;5050832;28;20697;-60
2024/01/18 08:40:04;;;;;;;3.63;1.25;;;21.30;27.10;;;;;;5056944;28;20222;-59
2024/01/18 08:42:31;;;;;;;1.45;0.82;;;21.30;26.90;;;;;;5048910;28;20199;-61
2024/01/18 08:45:00;;;;;;;4.30;1.10;;;21.30;27.00;;;;;;5049180;28;20215;-58
2024/01/18 08:47:27;;;;;;;2.70;1.17;;;21.40;27.10;;;;;;5047118;28;20278;-61
2024/01/18 08:49:54;;;;;;;2.60;1.20;;;21.40;27.10;;;;;;5053710;28;20302;-60
2024/01/18 08:52:21;;;;;;;2.95;1.20;;;21.40;27.20;;;;;;5049587;28;20265;-60
2024/01/18 08:54:48;;;;;;;2.90;1.33;;;21.40;27.00;;;;;;5048771;28;20198;-59
2024/01/18 08:57:17;;;;;;;4.47;1.00;;;21.40;27.00;;;;;;5039409;28;20220;-60
2024/01/18 08:59:44;;;;;;;8.77;0.90;;;21.40;26.90;;;;;;5049030;28;20566;-51
2024/01/18 09:02:13;;;;;;;1.50;1.00;;;21.40;27.00;;;;;;5045229;28;20777;-52
2024/01/18 09:04:40;;;;;;;3.65;1.05;;;21.40;27.00;;;;;;5047322;28;20478;-55
2024/01/18 09:07:07;;;;;;;4.28;1.00;;;21.50;26.90;;;;;;5046587;28;20454;-58
2024/01/18 09:09:34;;;;;;;2.10;0.95;;;21.60;26.60;;;;;;5049532;28;20278;-59
2024/01/18 09:12:01;;;;;;;2.90;0.90;;;21.70;26.50;;;;;;5055199;28;20225;-62
2024/01/18 09:14:28;;;;;;;3.40;1.13;;;21.70;26.50;;;;;;5049789;28;20215;-55
2024/01/18 09:16:55;;;;;;;2.10;0.90;;;21.60;26.40;;;;;;5052311;28;20214;-57
2024/01/18 09:19:43;;;;;;;2.30;0.75;;;21.60;26.30;;;;;;5053345;28;20213;-54
2024/01/18 09:22:10;;;;;;;1.58;0.90;;;21.60;26.20;;;;;;5019485;28;20215;-61
2024/01/18 09:24:38;;;;;;;3.17;1.05;;;21.60;26.20;;;;;;5057338;28;20653;-59
2024/01/18 09:27:05;;;;;;;1.38;0.70;;;21.60;26.30;;;;;;5051771;28;20272;-60
2024/01/18 09:29:32;;;;;;;4.15;1.35;;;21.60;26.20;;;;;;5050947;28;20282;-60
2024/01/18 09:31:59;;;;;;;2.50;1.00;;;21.60;26.10;;;;;;5047725;28;20304;-55
2024/01/18 09:34:27;;;;;;;3.33;0.70;;;21.60;26.20;;;;;;5054990;28;20198;-59
2024/01/18 09:36:54;;;;;;;3.20;0.90;;;21.50;25.80;;;;;;5046651;28;20228;-60
2024/01/18 09:39:21;;;;;;;5.13;1.10;;;21.50;26.30;;;;;;5044962;28;20497;-62
2024/01/18 09:41:50;;;;;;;2.75;1.00;;;21.50;25.80;;;;;;5051672;28;20227;-60
2024/01/18 09:44:25;;;;;;;2.13;0.70;;;21.50;25.80;;;;;;5048175;28;20198;-58
2024/01/18 09:46:53;;;;;;;1.70;0.73;;;21.50;25.90;;;;;;5046957;28;20214;-57
2024/01/18 09:49:20;;;;;;;3.97;0.95;;;21.60;25.90;;;;;;5043249;28;20195;-58
2024/01/18 09:51:49;;;;;;;5.43;1.00;;;21.60;26.00;;;;;;5046676;28;20302;-61
2024/01/18 09:54:17;;;;;;;5.43;1.08;;;21.60;26.00;;;;;;5042632;28;20206;-56
2024/01/18 09:56:45;;;;;;;1.13;0.90;;;21.70;26.20;;;;;;5045155;28;20715;-61
2024/01/18 09:59:16;;;;;;;1.40;1.00;;;21.70;26.10;;;;;;5046006;28;20273;-60
2024/01/18 10:01:43;;;;;;;2.08;0.80;;;21.70;26.10;;;;;;5045277;28;20223;-60
2024/01/18 10:04:13;;;;;;;2.33;0.68;;;21.70;26.10;;;;;;5049572;28;20224;-58
2024/01/18 10:06:40;;;;;;;1.92;1.00;;;21.70;26.00;;;;;;5046719;28;20641;-58
2024/01/18 10:09:10;;;;;;;1.33;0.80;;;21.80;26.00;;;;;;5044839;28;20231;-55
2024/01/18 10:11:37;;;;;;;2.35;1.05;;;21.80;26.10;;;;;;5038796;28;20787;-56
2024/01/18 10:14:05;;;;;;;0.82;0.70;;;21.80;26.00;;;;;;5046950;28;20679;-59
2024/01/18 10:16:33;;;;;;;5.72;1.10;;;21.80;25.90;;;;;;5041981;28;20306;-57
2024/01/18 10:19:01;;;;;;;1.88;0.75;;;21.80;25.80;;;;;;5046841;28;20211;-56
2024/01/18 10:21:29;;;;;;;2.15;0.70;;;21.90;25.80;;;;;;5040819;28;20326;-60
2024/01/18 10:23:57;;;;;;;4.22;1.30;;;21.90;25.80;;;;;;5048137;28;20196;-57
2024/01/18 10:26:29;;;;;;;2.13;1.13;;;21.90;25.70;;;;;;5046899;28;20247;-63
2024/01/18 10:28:57;;;;;;;3.35;1.13;;;21.90;25.70;;;;;;5047987;28;20541;-66
2024/01/18 10:31:24;;;;;;;6.45;0.85;;;21.90;25.80;;;;;;5053714;28;20269;-66
2024/01/18 10:33:51;;;;;;;2.25;1.08;;;21.90;25.80;;;;;;5040644;28;20562;-62
2024/01/18 10:36:18;;;;;;;5.32;1.10;;;21.90;25.70;;;;;;5046539;28;20654;-67
2024/01/18 10:38:45;;;;;;;2.33;1.00;;;21.90;25.80;;;;;;5048697;28;20742;-66
2024/01/18 10:41:18;;;;;;;1.92;0.90;;;21.90;25.90;;;;;;5049018;28;20222;-67
2024/01/18 10:43:48;;;;;;;3.22;1.10;;;21.90;26.00;;;;;;5050065;28;20202;-67
2024/01/18 10:46:17;;;;;;;2.80;1.23;;;21.90;26.10;;;;;;5049047;28;20827;-66
2024/01/18 10:48:46;;;;;;;1.83;0.90;;;21.90;26.10;;;;;;5048566;28;20661;-64
2024/01/18 10:51:14;;;;;;;2.58;1.10;;;21.90;26.10;;;;;;5047432;28;20219;-66
2024/01/18 10:53:41;;;;;;;3.05;1.10;;;21.90;26.00;;;;;;5043343;28;20206;-67
2024/01/18 10:56:09;;;;;;;2.80;1.17;;;21.90;25.80;;;;;;5046908;28;20199;-66
2024/01/18 10:58:36;;;;;;;2.35;1.00;;;21.90;25.80;;;;;;5047839;28;20222;-67
2024/01/18 11:01:05;;;;;;;1.08;0.70;;;21.90;25.80;;;;;;5047114;28;20736;-67
2024/01/18 11:03:33;;;;;;;2.47;0.95;;;21.90;25.70;;;;;;5047491;28;20199;-65
2024/01/18 11:06:07;;;;;;;5.55;1.50;;;21.90;25.70;;;;;;5049611;28;20208;-67
2024/01/18 11:08:35;;;;;;;3.42;1.00;;;22.00;25.80;;;;;;5047231;28;20293;-66
2024/01/18 11:11:02;;;;;;;3.00;1.02;;;22.00;25.80;;;;;;5049343;28;20246;-65
2024/01/18 11:13:29;;;;;;;3.75;0.90;;;22.00;25.80;;;;;;5048288;28;20199;-66
2024/01/18 11:15:56;;;;;;;4.13;0.73;;;22.00;25.70;;;;;;5048295;28;20274;-66
2024/01/18 11:18:24;;;;;;;3.45;1.05;;;22.00;25.60;;;;;;5047606;28;20322;-62
2024/01/18 11:21:06;;;;;;;3.97;1.10;;;22.00;25.60;;;;;;5044163;28;20835;-58
2024/01/18 11:23:37;;;;;;;1.15;0.82;;;22.00;25.40;;;;;;5046839;28;20203;-53
2024/01/18 11:26:05;;;;;;;1.63;0.90;;;22.00;25.40;;;;;;5047176;28;20188;-66
2024/01/18 11:28:33;;;;;;;4.32;0.95;;;22.00;25.30;;;;;;5047083;28;20215;-67
2024/01/18 11:31:00;;;;;;;2.58;1.00;;;22.00;25.20;;;;;;5046345;28;20200;-65
2024/01/18 11:33:29;;;;;;;1.90;1.00;;;22.00;25.10;;;;;;5046840;28;20605;-58
2024/01/18 11:35:56;;;;;;;2.05;1.00;;;22.00;25.10;;;;;;5047473;28;20275;-59
2024/01/18 11:38:25;;;;;;;1.60;0.90;;;22.00;24.90;;;;;;5047132;28;20224;-66
2024/01/18 11:40:54;;;;;;;2.92;0.82;;;22.00;24.90;;;;;;5048084;28;20715;-64
2024/01/18 11:43:23;;;;;;;1.63;0.85;;;22.00;24.90;;;;;;5044854;28;20310;-64
2024/01/18 11:45:51;;;;;;;1.85;1.00;;;22.00;24.80;;;;;;5045980;28;20203;-66
2024/01/18 11:48:19;;;;;;;4.90;1.10;;;22.00;24.80;;;;;;5046142;28;20226;-66
2024/01/18 11:50:48;;;;;;;3.00;1.40;;;22.00;24.80;;;;;;5046525;28;20202;-61
2024/01/18 11:53:17;;;;;;;4.20;1.50;;;22.00;24.80;;;;;;5047053;28;20223;-67
2024/01/18 11:55:47;;;;;;;2.13;1.00;;;22.00;24.80;;;;;;5047424;28;20207;-65
2024/01/18 11:58:14;;;;;;;3.58;1.10;;;22.00;24.70;;;;;;5046967;28;20241;-56
2024/01/18 12:00:42;;;;;;;3.25;1.05;;;22.00;24.60;;;;;;5045476;28;20196;-58
2024/01/18 12:03:12;;;;;;;3.08;0.95;;;22.00;24.70;;;;;;5046716;28;20222;-59
2024/01/18 12:05:40;;;;;;;2.60;1.02;;;22.00;24.60;;;;;;5044585;28;20203;-62
2024/01/18 12:08:10;;;;;;;2.63;1.38;;;22.00;24.60;;;;;;5045370;28;20243;-62
2024/01/18 12:10:37;;;;;;;2.28;1.15;;;22.00;24.50;;;;;;5046442;28;20561;-64
2024/01/18 12:13:05;;;;;;;1.85;1.05;;;22.10;24.60;;;;;;5046923;28;20216;-64
2024/01/18 12:15:32;;;;;;;4.82;1.20;;;22.10;24.60;;;;;;5003632;28;20669;-61
2024/01/18 12:18:00;;;;;;;3.90;1.25;;;22.10;24.60;;;;;;5048505;28;20234;-59
2024/01/18 12:20:27;;;;;;;1.83;1.20;;;22.10;24.60;;;;;;5045287;28;20212;-65
2024/01/18 12:22:54;;;;;;;2.03;1.17;;;22.10;24.60;;;;;;5046803;28;20230;-58
2024/01/18 12:25:23;;;;;;;2.38;1.15;;;22.10;24.60;;;;;;5043670;28;20191;-66
2024/01/18 12:27:50;;;;;;;1.35;1.05;;;22.20;24.70;;;;;;5049265;28;20234;-57
2024/01/18 12:30:17;;;;;;;1.95;1.00;;;22.20;24.70;;;;;;5046585;28;20188;-66
2024/01/18 12:32:45;;;;;;;1.20;0.90;;;22.20;24.70;;;;;;5046089;28;20331;-66
2024/01/18 12:35:13;;;;;;;1.60;1.10;;;22.20;24.60;;;;;;5045172;28;20227;-59
2024/01/18 12:37:40;;;;;;;1.58;1.15;;;22.20;24.50;;;;;;5045725;28;20624;-63
2024/01/18 12:40:10;;;;;;;1.83;1.17;;;22.20;24.50;;;;;;5045205;28;20247;-59
2024/01/18 12:42:39;;;;;;;1.80;1.27;;;22.30;24.50;;;;;;5044159;28;20707;-66
2024/01/18 12:45:07;;;;;;;2.88;1.13;;;22.30;24.50;;;;;;5041698;28;20195;-66
2024/01/18 12:47:36;;;;;;;2.10;0.90;;;22.30;24.60;;;;;;5045434;28;20200;-66
2024/01/18 12:50:07;;;;;;;2.25;1.20;;;22.30;24.50;;;;;;5044213;28;20667;-66